Roscommon, Michigan
Current Conditions -  °F | °C
As of 12:53 AM on Saturday 25 Oct 2014 (Local Time) from KHTL Reporting Station
Haze Haze  
Wind Chill: 44°   Ceiling: 300
Heat Index: 47°   Visibility: 5mi
Dew Point: 46°   Wind: 7mph
Humidity: 97%   Direction: 220°SW
Pressure: 29.89"   Gusts: NA
Location:  44.5°N, 84.59°W
Report Text: KHTL 250453Z AUTO 22006KT 5SM BR OVC003 08/08 A2989 RMK AO2 SLP127 T00830078 401110011
Loading
Personal Weather Stations






























Interactive Weather Map
Tropical Storm Tracking
New forecast layout! Learn more

10-Day Weather Forecast

Advertisements
Track Severe Weather on mobile